• Join FlightAware (Why Join?)
  • Login
  • US Flag 
09:38PM EDT


 

Airport Tracker/Info


-or-


 

Live Flight TrackerFlight Track Log ✈ EJA831 ✈ 12-Jun-2013 ✈ KLUK - KUES

Flight Track Log - Related Links

Times and Time Zones

All times are in EDT time to prevent confusion due to time zone crossing. See the EJA831 flight status page for this flight to view local times or setup timezone preferences in your user account.

Time Position Orientation Groundspeed Altitude Reporting Facility
EDT Latitude Longitude Course Direction KTS MPH feet Rate Location/Type
10:35AM 39.0833 -84.4167 201° Southwest 175 201 1,200  Level Cincinnati TRACON
10:36AM 39.0500 -84.4333 201° Southwest 200 230 1,900 720 Climbing Cincinnati TRACON
10:37AM 39.0000 -84.4667 207° Southwest 198 228 2,500 300 Climbing Cincinnati TRACON
10:38AM 38.9500 -84.4833 195° South 176 203 2,500  Level Cincinnati TRACON
10:39AM 38.9167 -84.5000 201° Southwest 162 186 2,500 300 Level Cincinnati TRACON
10:40AM 38.9000 -84.5667 252° West 169 194 3,100 1,200 Climbing Cincinnati TRACON
10:41AM 38.9119 -84.6053 292° West 173 199 4,700 2,460 Climbing Indianapolis Center
10:41AM 38.9167 -84.6333 282° West 191 220 5,600 2,760 Climbing Cincinnati TRACON
10:42AM 38.9333 -84.7000 288° West 249 287 7,900 2,400 Climbing Cincinnati TRACON
10:44AM 39.0614 -84.7700 337° Northwest 282 325 12,500 2,220 Climbing Indianapolis Center
10:45AM 39.1578 -84.8214 338° Northwest 315 362 14,700 2,100 Climbing Indianapolis Center
10:46AM 39.2464 -84.8669 338° Northwest 334 384 16,900 2,400 Climbing Indianapolis Center
10:47AM 39.3281 -84.9097 338° Northwest 319 367 19,700 2,400 Climbing Indianapolis Center
10:48AM 39.4094 -84.9531 338° Northwest 310 357 21,900 1,740 Climbing Indianapolis Center
10:49AM 39.4975 -84.9989 338° Northwest 337 388 23,400 1,560 Climbing Indianapolis Center
10:50AM 39.5906 -85.0431 340° North 350 403 25,200 1,680 Climbing Indianapolis Center
10:51AM 39.6869 -85.0772 345° North 354 407 26,900 1,500 Climbing Indianapolis Center
10:52AM 39.7839 -85.1128 344° North 356 410 28,300 1,140 Climbing Indianapolis Center
10:53AM 39.8847 -85.1478 345° North 367 422 29,300 780 Climbing Indianapolis Center
10:54AM 40.0039 -85.1906 345° North 375 432 30,000 300 Climbing Indianapolis Center
10:55AM 40.1133 -85.2292 345° North 398 458 30,000  Level Indianapolis Center
10:56AM 40.2247 -85.2697 344° North 407 468 30,000  Level Indianapolis Center
10:57AM 40.3353 -85.3100 344° North 409 471 30,000  Level Indianapolis Center
10:58AM 40.3944 -85.3292 346° North 407 468 30,000  Level Chicago Center
10:59AM 40.5017 -85.3700 344° North 403 464 30,000  Level Chicago Center
11:00AM 40.6100 -85.4083 345° North 403 464 30,000  Level Chicago Center
11:01AM 40.7400 -85.4567 344° North 404 465 30,000 -240 Level Chicago Center
11:02AM 40.8494 -85.4947 345° North 405 466 29,600 -720 Descending Chicago Center
11:03AM 40.9606 -85.5378 344° North 413 475 28,600 -780 Descending Chicago Center
11:04AM 41.0714 -85.5756 346° North 412 474 28,000 -300 Descending Chicago Center
11:05AM 41.1814 -85.5981 351° North 400 460 28,000  Level Chicago Center
11:06AM 41.2922 -85.6231 350° North 404 465 28,000 -480 Level Chicago Center
11:07AM 41.4050 -85.6475 351° North 408 470 27,100 -1,800 Descending Chicago Center
11:08AM 41.5389 -85.6783 350° North 404 465 24,400 -1,500 Descending Chicago Center
11:09AM 41.6497 -85.7008 351° North 397 457 24,000 -240 Descending Chicago Center
11:10AM 41.7586 -85.7247 351° North 392 451 24,000 -480 Level Chicago Center
11:11AM 41.8653 -85.7478 351° North 385 443 23,100 -960 Descending Chicago Center
11:12AM 41.9725 -85.7717 351° North 388 447 22,100 -540 Descending Chicago Center
11:14AM 42.0853 -85.7969 351° North 376 433 22,000 -60 Descending Chicago Center
11:15AM 42.1886 -85.8206 350° North 376 433 22,000  Level Chicago Center
11:16AM 42.2953 -85.8411 352° North 383 441 22,000  Level Chicago Center
11:17AM 42.3994 -85.8642 351° North 382 440 22,000  Level Chicago Center
11:18AM 42.5047 -85.8864 351° North 382 440 22,000  Level Chicago Center
11:19AM 42.6078 -85.9131 349° North 380 437 22,000  Level Chicago Center
11:20AM 42.7131 -85.9367 351° North 383 441 22,000  Level Chicago Center
11:21AM 42.8369 -85.9642 351° North 376 433 22,000  Level Chicago Center
11:22AM 42.9353 -86.0044 343° North 374 430 22,000  Level Chicago Center
11:23AM 42.9736 -86.1278 293° West 347 399 22,000  Level Chicago Center
11:24AM 42.9917 -86.2589 281° West 345 397 22,000  Level Chicago Center
11:25AM 43.0097 -86.3839 281° West 338 389 22,000 -360 Level Chicago Center
11:26AM 43.0283 -86.5114 281° West 343 395 21,300 -1,260 Descending Chicago Center
11:27AM 43.0464 -86.6428 281° West 351 404 19,500 -1,800 Descending Chicago Center
11:28AM 43.0625 -86.7672 280° West 338 389 17,700 -1,860 Descending Chicago Center
11:29AM 43.0814 -86.9050 281° West 304 350 15,800 -1,740 Descending Chicago Center
11:30AM 43.0972 -87.0147 281° West 296 341 14,200 -900 Descending Chicago Center
11:31AM 43.1122 -87.1278 280° West 301 346 14,000 -420 Descending Chicago Center
11:32AM 43.1272 -87.2386 281° West 299 344 13,400 -1,260 Descending Chicago Center
11:33AM 43.1400 -87.3333 281° West 257 296 11,500 -1,920 Descending Chicago Center
11:34AM 43.1414 -87.4406 271° West 232 267 9,500 -1,920 Descending Chicago Center
11:35AM 43.1397 -87.5253 268° West 221 254 7,600 -1,740 Descending Chicago Center
11:36AM 43.1369 -87.6131 268° West 227 261 6,000 -840 Descending Chicago Center
11:37AM 43.1336 -87.7025 267° West 234 269 6,000  Level Chicago Center
11:38AM 43.1308 -87.7958 268° West 241 277 6,000 -600 Level Chicago Center
11:39AM 43.1294 -87.8678 269° West 198 228 4,800 -1,020 Descending Chicago Center
11:40AM 43.1267 -87.9447 267° West 198 228 4,000 -420 Descending Chicago Center
11:41AM 43.1242 -88.0394 268° West 206 237 4,000 -360 Level Chicago Center
11:42AM 43.1189 -88.1289 265° West 222 255 3,300 -720 Descending Chicago Center
11:43AM 43.0858 -88.1939 235° Southwest 209 241 2,600 -360 Descending Chicago Center
11:44AM 43.0692 -88.2525 249° West 184 212 2,600 -420 Level Chicago Center
11:45AM 43.0500 -88.2814 228° Southwest 151 174 1,800 -720 Descending Chicago Center
11:47AM 43.0372 -88.2361 111° Southeast 143 165 1,200 -600 Descending Chicago Center